Time;durP1;ratioP1;P1;durP2;ratioP2;P2;SDS_P1;SDS_P2;PMS_P1;PMS_P2;Temp;Humidity;BMP_temperature;BMP_pressure;BME280_temperature;BME280_humidity;BME280_pressure;Samples;Min_cycle;Max_cycle;Signal;HPM_P1;HPM_P2
2021/09/18 00:01:32;;;;;;;20.48;10.98;;;;;;;24.97;47.99;99099.56;5050312;28;20036;-37
2021/09/18 00:03:58;;;;;;;20.90;12.05;;;;;;;25.01;48.16;99101.66;5049298;28;20021;-37
2021/09/18 00:06:23;;;;;;;26.05;13.23;;;;;;;24.88;48.47;99103.38;5050180;28;20021;-37
2021/09/18 00:08:48;;;;;;;26.30;12.63;;;;;;;24.80;48.63;99113.09;5050073;28;20033;-36
2021/09/18 00:11:14;;;;;;;25.45;12.13;;;;;;;24.77;48.62;99113.75;5050011;28;20086;-37
2021/09/18 00:13:39;;;;;;;24.48;12.18;;;;;;;24.77;48.69;99121.91;5049909;28;20103;-36
2021/09/18 00:16:05;;;;;;;21.48;11.82;;;;;;;24.74;48.97;99125.25;5049824;28;20445;-36
2021/09/18 00:18:30;;;;;;;18.38;11.52;;;;;;;24.69;48.66;99125.38;5050208;28;20021;-37
2021/09/18 00:20:58;;;;;;;22.27;10.75;;;;;;;24.49;49.02;99123.97;5050090;28;20028;-37
2021/09/18 00:23:23;;;;;;;20.95;11.02;;;;;;;24.27;49.58;99111.19;5050100;28;20029;-37
2021/09/18 00:25:49;;;;;;;23.65;10.40;;;;;;;23.98;50.16;99107.78;5049983;28;20032;-37
2021/09/18 00:28:14;;;;;;;26.95;11.05;;;;;;;24.16;49.72;99116.06;5049788;28;20457;-37
2021/09/18 00:30:40;;;;;;;21.42;10.65;;;;;;;24.27;49.33;99117.41;5049664;28;20033;-37
2021/09/18 00:33:05;;;;;;;19.30;10.45;;;;;;;24.21;49.49;99115.94;5049721;28;20025;-36
2021/09/18 00:35:31;;;;;;;22.27;10.82;;;;;;;24.44;48.62;99119.44;5049860;28;20104;-36
2021/09/18 00:37:56;;;;;;;23.25;10.05;;;;;;;24.39;48.73;99120.38;5050500;28;20495;-37
2021/09/18 00:40:22;;;;;;;16.00;9.90;;;;;;;24.38;48.46;99112.53;5050281;28;20025;-37
2021/09/18 00:42:47;;;;;;;16.58;10.57;;;;;;;24.34;48.94;99122.44;5049698;28;20102;-36
2021/09/18 00:45:13;;;;;;;18.17;10.48;;;;;;;24.42;48.68;99137.97;5049538;28;20032;-37
2021/09/18 00:47:38;;;;;;;22.23;10.30;;;;;;;24.54;48.41;99138.28;5049506;28;20457;-37
2021/09/18 00:50:04;;;;;;;23.88;11.02;;;;;;;24.67;47.79;99142.00;5049657;28;20473;-37
2021/09/18 00:52:29;;;;;;;23.90;10.30;;;;;;;24.13;49.25;99138.44;5049603;28;20029;-37
2021/09/18 00:54:55;;;;;;;22.20;10.60;;;;;;;23.67;50.42;99132.09;5048057;28;20048;-37
2021/09/18 00:57:20;;;;;;;18.52;10.35;;;;;;;23.89;50.31;99127.84;5048092;28;20088;-38
2021/09/18 00:59:46;;;;;;;19.10;10.10;;;;;;;23.96;50.14;99123.59;5049461;28;20032;-37
2021/09/18 01:02:11;;;;;;;17.00;9.85;;;;;;;24.03;50.10;99131.31;5049159;28;20424;-37
2021/09/18 01:04:37;;;;;;;23.00;10.95;;;;;;;24.10;49.60;99112.66;5049443;28;20028;-38
2021/09/18 01:07:03;;;;;;;18.02;10.43;;;;;;;24.26;49.27;99115.03;5049356;28;20445;-37
2021/09/18 01:09:29;;;;;;;21.23;10.55;;;;;;;24.27;49.24;99109.25;5049434;28;20029;-37
2021/09/18 01:11:54;;;;;;;15.55;10.32;;;;;;;24.39;49.10;99108.72;5031709;28;20465;-37
2021/09/18 01:14:20;;;;;;;21.90;10.30;;;;;;;24.53;48.71;99103.22;5049278;28;20037;-38
2021/09/18 01:16:45;;;;;;;22.30;9.95;;;;;;;24.56;48.88;99099.84;5049634;28;20381;-37
2021/09/18 01:19:10;;;;;;;17.08;9.80;;;;;;;24.49;48.89;99096.78;5053532;28;20033;-37
2021/09/18 01:21:36;;;;;;;17.83;9.32;;;;;;;24.51;48.71;99089.94;5053511;28;20132;-38
2021/09/18 01:24:01;;;;;;;20.00;10.40;;;;;;;24.50;48.93;99096.47;5053424;28;20468;-37
2021/09/18 01:26:38;;;;;;;20.58;10.40;;;;;;;24.55;48.62;99098.28;5053398;28;20020;-37
2021/09/18 01:29:04;;;;;;;19.50;9.82;;;;;;;24.54;48.99;99100.19;5053252;28;20025;-37
2021/09/18 01:31:30;;;;;;;17.80;9.52;;;;;;;24.63;48.71;99100.22;5053394;28;20029;-37
2021/09/18 01:33:56;;;;;;;18.95;9.73;;;;;;;24.69;48.73;99092.72;5053364;28;20435;-37
2021/09/18 01:36:21;;;;;;;21.65;10.25;;;;;;;24.71;48.41;99096.75;5053432;28;20032;-37
2021/09/18 01:38:49;;;;;;;21.27;10.02;;;;;;;24.60;48.72;99103.59;5053274;28;20025;-37
2021/09/18 01:41:15;;;;;;;19.63;10.30;;;;;;;24.48;48.84;99097.88;5052856;28;20021;-38
2021/09/18 01:43:42;;;;;;;18.58;10.23;;;;;;;24.49;48.92;99102.22;5053163;28;20101;-37
2021/09/18 01:46:07;;;;;;;17.23;10.15;;;;;;;24.48;49.00;99109.53;5052851;28;20025;-37
2021/09/18 01:48:33;;;;;;;20.63;10.02;;;;;;;24.55;48.64;99101.78;5052778;28;20461;-38
2021/09/18 01:51:01;;;;;;;19.73;10.40;;;;;;;24.50;48.85;99099.19;5051700;28;20365;-38
2021/09/18 01:53:29;;;;;;;20.48;10.48;;;;;;;24.57;48.59;99091.41;5052757;28;20025;-37
2021/09/18 01:55:54;;;;;;;19.00;10.25;;;;;;;24.60;48.59;99084.53;5052465;28;20437;-37
2021/09/18 01:58:20;;;;;;;18.83;9.95;;;;;;;24.62;48.57;99086.94;5052727;28;20032;-37
2021/09/18 02:00:56;;;;;;;21.23;10.23;;;;;;;24.71;48.44;99087.78;5052750;28;20110;-37
2021/09/18 02:03:21;;;;;;;19.83;10.20;;;;;;;24.73;48.51;99082.81;5052898;28;20021;-37
2021/09/18 02:05:47;;;;;;;15.82;9.65;;;;;;;24.69;48.87;99076.41;5052766;28;20036;-37
2021/09/18 02:08:12;;;;;;;17.63;10.02;;;;;;;24.74;48.41;99081.72;5052683;28;20025;-37
2021/09/18 02:10:38;;;;;;;19.33;10.43;;;;;;;24.76;48.24;99085.72;5053001;28;20501;-37
2021/09/18 02:13:04;;;;;;;18.80;9.52;;;;;;;24.80;47.56;99088.63;5052610;28;20499;-37
2021/09/18 02:15:30;;;;;;;21.77;9.63;;;;;;;24.80;47.27;99085.09;5051442;28;20591;-36
2021/09/18 02:17:55;;;;;;;18.20;9.68;;;;;;;24.75;47.15;99072.44;5052955;28;20131;-38
2021/09/18 02:20:24;;;;;;;19.13;9.60;;;;;;;24.78;47.31;99088.94;5052395;28;20071;-37
2021/09/18 02:22:50;;;;;;;20.65;10.38;;;;;;;24.50;48.25;99092.94;5052162;28;20032;-37
2021/09/18 02:25:15;;;;;;;21.77;10.38;;;;;;;24.32;48.96;99098.25;5052202;28;20056;-37
2021/09/18 02:27:41;;;;;;;22.40;9.77;;;;;;;24.45;48.83;99095.78;5052088;28;20447;-37
2021/09/18 02:30:08;;;;;;;21.92;10.27;;;;;;;24.39;49.28;99095.13;5052327;28;20025;-37
2021/09/18 02:32:36;;;;;;;22.70;10.50;;;;;;;24.58;48.54;99090.28;5052265;28;20016;-37
2021/09/18 02:35:09;;;;;;;22.65;10.32;;;;;;;24.38;48.51;99096.22;5052369;28;20078;-36
2021/09/18 02:37:35;;;;;;;21.00;9.80;;;;;;;23.96;50.01;99098.34;5052185;28;20029;-37
2021/09/18 02:40:01;;;;;;;17.50;9.90;;;;;;;23.95;50.34;99105.69;5052072;28;20108;-37
2021/09/18 02:42:26;;;;;;;19.85;10.20;;;;;;;23.80;50.30;99108.75;5052074;28;20485;-37
2021/09/18 02:44:52;;;;;;;25.42;10.52;;;;;;;23.55;50.78;99121.75;5051919;28;20032;-36
2021/09/18 02:47:17;;;;;;;19.15;10.40;;;;;;;23.62;50.60;99115.91;5052127;28;20043;-36
2021/09/18 02:49:42;;;;;;;20.90;10.73;;;;;;;23.64;50.78;99121.84;5052258;28;20475;-36
2021/09/18 02:52:08;;;;;;;23.48;11.00;;;;;;;23.66;50.62;99121.53;5052148;28;20017;-36
2021/09/18 02:54:33;;;;;;;17.63;9.88;;;;;;;23.61;50.72;99134.13;5051824;28;20029;-36
2021/09/18 02:56:59;;;;;;;17.92;9.77;;;;;;;23.52;50.74;99127.78;5051976;28;20021;-37
2021/09/18 02:59:24;;;;;;;17.75;10.20;;;;;;;23.65;50.35;99123.44;5051795;28;20029;-37
2021/09/18 03:01:50;;;;;;;18.80;9.65;;;;;;;23.73;50.17;99113.78;5051571;28;20041;-37
2021/09/18 03:04:15;;;;;;;20.13;10.10;;;;;;;23.95;49.33;99118.44;5051860;28;20028;-37
2021/09/18 03:06:40;;;;;;;20.42;9.70;;;;;;;24.07;48.88;99112.50;5051514;28;20358;-38
2021/09/18 03:09:06;;;;;;;15.00;9.23;;;;;;;23.93;49.29;99118.78;5051370;28;20033;-36
2021/09/18 03:11:31;;;;;;;18.75;8.93;;;;;;;23.47;49.78;99117.03;5051663;28;20036;-36
2021/09/18 03:13:57;;;;;;;22.77;8.43;;;;;;;23.56;49.23;99126.06;5051472;28;20101;-37
2021/09/18 03:16:22;;;;;;;22.13;8.73;;;;;;;23.45;50.04;99132.03;5051478;28;20475;-37
2021/09/18 03:18:48;;;;;;;17.27;8.65;;;;;;;23.56;49.49;99126.06;5051558;28;20029;-37
2021/09/18 03:21:13;;;;;;;20.23;8.27;;;;;;;23.62;48.46;99118.63;5051506;28;20031;-37
2021/09/18 03:23:39;;;;;;;26.95;17.52;;;;;;;23.85;48.03;99108.63;5052136;28;20354;-37
2021/09/18 03:26:04;;;;;;;20.15;8.23;;;;;;;23.93;47.67;99113.34;5051709;28;20025;-37
2021/09/18 03:28:29;;;;;;;13.80;7.72;;;;;;;23.62;48.33;99113.19;5051328;28;20217;-37
2021/09/18 03:30:55;;;;;;;16.95;7.20;;;;;;;23.83;47.86;99110.06;5051473;28;20078;-37
2021/09/18 03:33:20;;;;;;;14.38;7.10;;;;;;;24.12;47.33;99115.91;5050087;28;20028;-38
2021/09/18 03:35:46;;;;;;;17.08;6.75;;;;;;;24.30;46.53;99119.53;5050874;28;20028;-38
2021/09/18 03:38:12;;;;;;;16.23;7.20;;;;;;;24.31;46.46;99106.72;5051003;28;20032;-37
2021/09/18 03:40:37;;;;;;;16.98;6.80;;;;;;;24.48;46.03;99101.38;5050009;28;20032;-37
2021/09/18 03:43:03;;;;;;;16.75;6.47;;;;;;;24.63;46.00;99105.66;5050683;28;20025;-37
2021/09/18 03:45:29;;;;;;;14.07;6.22;;;;;;;24.82;45.37;99110.88;5050674;28;20040;-38
2021/09/18 03:47:54;;;;;;;15.82;6.70;;;;;;;24.74;45.70;99107.00;5050668;28;20056;-37
2021/09/18 03:50:19;;;;;;;12.10;6.47;;;;;;;24.82;45.09;99105.44;5050756;28;20032;-37
2021/09/18 03:52:45;;;;;;;16.27;6.93;;;;;;;24.89;45.18;99105.78;5050634;28;20025;-37
2021/09/18 03:55:11;;;;;;;15.98;6.40;;;;;;;24.73;45.03;99091.81;5050692;28;20025;-37
2021/09/18 03:57:36;;;;;;;16.08;6.30;;;;;;;24.82;44.75;99083.66;5050737;28;20063;-36
2021/09/18 04:00:03;;;;;;;15.73;5.97;;;;;;;24.54;45.09;99088.50;5050324;28;20154;-36
2021/09/18 04:02:28;;;;;;;18.42;6.38;;;;;;;24.43;45.55;99076.25;5050504;28;20021;-36
2021/09/18 04:04:54;;;;;;;17.65;6.00;;;;;;;24.45;45.54;99080.28;5050517;28;20352;-36
2021/09/18 04:07:19;;;;;;;21.20;5.72;;;;;;;24.18;46.14;99083.97;5050466;28;20031;-36
2021/09/18 04:09:45;;;;;;;17.38;6.10;;;;;;;24.15;46.50;99073.69;5050387;28;20063;-37
2021/09/18 04:12:10;;;;;;;18.15;6.05;;;;;;;24.03;46.77;99073.44;5050337;28;20315;-37
2021/09/18 04:14:36;;;;;;;10.27;5.75;;;;;;;24.08;47.51;99070.59;5050397;28;20487;-37
2021/09/18 04:17:01;;;;;;;15.52;5.78;;;;;;;23.89;47.96;99063.44;5050382;28;20029;-37
2021/09/18 04:19:26;;;;;;;18.67;6.00;;;;;;;23.86;48.50;99061.34;5050343;28;20024;-37
2021/09/18 04:21:52;;;;;;;17.08;6.07;;;;;;;24.11;47.55;99059.91;5049273;28;20112;-38
2021/09/18 04:24:17;;;;;;;14.77;5.38;;;;;;;23.76;48.72;99070.50;5050291;28;20032;-37
2021/09/18 04:26:43;;;;;;;18.48;5.85;;;;;;;23.97;48.02;99064.59;5050583;28;20432;-37
2021/09/18 04:29:08;;;;;;;16.15;5.53;;;;;;;24.18;47.58;99070.38;5050619;28;20374;-37
2021/09/18 04:31:34;;;;;;;12.32;5.22;;;;;;;24.30;48.33;99072.50;5050169;28;20090;-36
2021/09/18 04:33:59;;;;;;;15.40;5.80;;;;;;;24.62;47.35;99070.59;5050024;28;20106;-38
2021/09/18 04:36:25;;;;;;;19.73;5.90;;;;;;;24.92;46.46;99075.25;5049504;28;20032;-38
2021/09/18 04:38:50;;;;;;;12.07;5.43;;;;;;;25.25;45.47;99071.34;5049672;28;20082;-37
2021/09/18 04:41:16;;;;;;;17.58;5.80;;;;;;;25.53;44.44;99069.13;5049517;28;20032;-37
2021/09/18 04:43:41;;;;;;;17.50;5.95;;;;;;;25.65;44.98;99077.47;5049296;28;20404;-37
2021/09/18 04:46:07;;;;;;;17.30;5.82;;;;;;;25.95;44.03;99085.84;5049468;28;20028;-37
2021/09/18 04:48:32;;;;;;;15.35;5.78;;;;;;;26.10;44.32;99082.63;5049358;28;20388;-37
2021/09/18 04:50:57;;;;;;;16.63;5.90;;;;;;;26.30;43.38;99085.81;5049413;28;20087;-38
2021/09/18 04:53:23;;;;;;;20.98;6.75;;;;;;;26.30;43.61;99080.34;5049550;28;20033;-37
2021/09/18 04:55:48;;;;;;;51.90;31.00;;;;;;;26.51;43.08;99083.19;5049753;28;20408;-38
2021/09/18 04:58:14;;;;;;;30.20;17.17;;;;;;;26.63;43.06;99086.03;5049808;28;20025;-38
2021/09/18 05:00:39;;;;;;;35.13;22.92;;;;;;;26.70;42.97;99080.88;5050114;28;20044;-36
2021/09/18 05:03:05;;;;;;;28.58;16.25;;;;;;;26.89;42.82;99083.22;5050169;28;20048;-37
2021/09/18 05:05:31;;;;;;;21.15;9.35;;;;;;;26.88;42.62;99089.00;5049370;28;20059;-37
2021/09/18 05:07:56;;;;;;;10.80;5.93;;;;;;;26.86;44.76;99092.06;5049571;28;20025;-37
2021/09/18 05:10:21;;;;;;;15.98;5.28;;;;;;;26.79;43.16;99090.97;5049178;28;20032;-37
2021/09/18 05:12:47;;;;;;;15.35;5.65;;;;;;;27.04;42.92;99086.53;5048651;28;20052;-37
2021/09/18 05:15:12;;;;;;;13.60;5.60;;;;;;;26.97;42.37;99078.84;5048678;28;20029;-37
2021/09/18 05:17:38;;;;;;;20.50;8.85;;;;;;;27.08;42.71;99092.94;5048665;28;20036;-37
2021/09/18 05:20:04;;;;;;;28.30;16.80;;;;;;;27.27;42.59;99090.59;5048769;28;20029;-37
2021/09/18 05:22:29;;;;;;;28.38;13.30;;;;;;;27.27;42.32;99085.13;5048663;28;20419;-36
2021/09/18 05:24:55;;;;;;;24.98;10.60;;;;;;;27.68;41.12;99082.75;5048423;28;20029;-37
2021/09/18 05:27:20;;;;;;;20.75;7.13;;;;;;;27.77;41.19;99079.97;5048637;28;20709;-38
2021/09/18 05:29:46;;;;;;;15.98;6.57;;;;;;;28.03;40.81;99093.44;5048382;28;20037;-37
2021/09/18 05:32:11;;;;;;;27.77;11.52;;;;;;;28.05;41.01;99099.38;5048946;28;20021;-36
2021/09/18 05:34:37;;;;;;;20.38;7.53;;;;;;;27.84;40.88;99091.16;5048790;28;20036;-37
2021/09/18 05:37:03;;;;;;;20.33;8.90;;;;;;;28.17;40.87;99121.28;5048989;28;20060;-37
2021/09/18 05:39:29;;;;;;;22.85;6.97;;;;;;;28.45;39.64;99128.91;5048659;28;20056;-37
2021/09/18 05:41:54;;;;;;;22.02;6.85;;;;;;;28.39;39.46;99122.06;5048691;28;20365;-37
2021/09/18 05:44:19;;;;;;;32.85;16.60;;;;;;;28.37;40.98;99130.59;5048409;28;20025;-37
2021/09/18 05:46:45;;;;;;;20.08;8.10;;;;;;;28.09;40.14;99138.59;5048267;28;20029;-36
2021/09/18 05:49:10;;;;;;;22.10;6.30;;;;;;;28.02;39.79;99133.63;5048219;28;20504;-39
2021/09/18 05:51:36;;;;;;;20.02;6.82;;;;;;;27.86;41.15;99133.44;5046920;28;20052;-38
2021/09/18 05:54:01;;;;;;;18.17;6.60;;;;;;;27.48;41.53;99131.59;5048272;28;20366;-38
2021/09/18 05:56:27;;;;;;;18.55;6.20;;;;;;;27.67;40.90;99133.88;5048585;28;20029;-37
2021/09/18 05:58:52;;;;;;;19.63;5.68;;;;;;;27.75;40.76;99142.38;5048159;28;20060;-37
2021/09/18 06:01:18;;;;;;;19.85;6.78;;;;;;;27.85;41.49;99150.16;5048052;28;20021;-37
2021/09/18 06:03:43;;;;;;;16.50;5.75;;;;;;;27.91;40.90;99146.13;5050024;28;20432;-38
2021/09/18 06:06:09;;;;;;;14.98;6.72;;;;;;;28.08;40.92;99146.00;5051289;28;20089;-38
2021/09/18 06:08:34;;;;;;;14.85;5.15;;;;;;;28.04;40.42;99136.03;5035580;28;20025;-38
2021/09/18 06:11:00;;;;;;;18.63;5.80;;;;;;;27.94;40.46;99137.25;5032226;28;20097;-39
2021/09/18 06:13:25;;;;;;;21.02;6.32;;;;;;;28.30;40.01;99137.75;5045091;28;20459;-37
2021/09/18 06:15:51;;;;;;;14.82;5.90;;;;;;;28.46;39.97;99139.53;5051996;28;20032;-37
2021/09/18 06:18:16;;;;;;;23.83;9.75;;;;;;;28.44;39.84;99111.72;5051903;28;20036;-37
2021/09/18 06:20:41;;;;;;;28.83;12.48;;;;;;;28.51;39.86;99145.94;5051698;28;20445;-37
2021/09/18 06:23:07;;;;;;;15.45;6.35;;;;;;;28.71;39.90;99157.97;5051635;28;20087;-37
2021/09/18 06:25:32;;;;;;;17.08;5.65;;;;;;;28.77;39.25;99160.16;5051455;28;20040;-37
2021/09/18 06:27:58;;;;;;;19.40;5.50;;;;;;;28.77;39.96;99178.50;5052116;28;20533;-38
2021/09/18 06:30:23;;;;;;;17.92;5.68;;;;;;;28.51;40.48;99178.75;5051834;28;20040;-37
2021/09/18 06:32:49;;;;;;;14.00;5.30;;;;;;;28.34;40.50;99174.25;5051605;28;20032;-37
2021/09/18 06:35:14;;;;;;;15.38;5.57;;;;;;;28.24;40.76;99173.53;5051764;28;20029;-37
2021/09/18 06:37:43;;;;;;;17.27;5.88;;;;;;;28.25;40.64;99194.28;5051945;28;20457;-37
2021/09/18 06:40:09;;;;;;;;;;;;;;;27.99;41.02;99201.88;5052540;28;20025;-42
2021/09/18 06:42:35;;;;;;;19.58;6.90;;;;;;;27.38;42.41;99210.41;5050621;28;19965;-38
2021/09/18 06:45:00;;;;;;;23.80;6.50;;;;;;;27.17;42.48;99205.66;5051755;28;20036;-37
2021/09/18 06:47:26;;;;;;;124.05;84.80;;;;;;;27.18;42.93;99200.97;5051788;28;20029;-37
2021/09/18 06:49:51;;;;;;;24.50;7.93;;;;;;;27.19;42.55;99186.19;5051967;28;20036;-38
2021/09/18 06:52:16;;;;;;;16.90;5.57;;;;;;;27.35;42.57;99181.03;5043167;28;20025;-38
2021/09/18 06:54:43;;;;;;;15.35;5.03;;;;;;;27.45;42.03;99197.03;5050403;28;20577;-38
2021/09/18 06:57:11;;;;;;;15.27;5.32;;;;;;;27.10;42.98;99200.69;5051491;28;20094;-38
2021/09/18 06:59:38;;;;;;;17.30;4.93;;;;;;;27.05;43.04;99187.19;5050184;28;20068;-37
2021/09/18 07:02:04;;;;;;;16.50;4.50;;;;;;;26.90;42.84;99187.72;5049209;28;20362;-37
2021/09/18 07:04:29;;;;;;;19.25;4.72;;;;;;;27.03;42.81;99178.53;5049054;28;20561;-37
2021/09/18 07:06:55;;;;;;;14.80;4.82;;;;;;;27.04;42.57;99180.16;5049624;28;20052;-38
2021/09/18 07:09:20;;;;;;;13.57;4.90;;;;;;;26.86;43.08;99184.84;5049300;28;20397;-37
2021/09/18 07:11:46;;;;;;;18.40;7.72;;;;;;;26.95;42.78;99195.75;5051141;28;20059;-37
2021/09/18 07:14:11;;;;;;;18.20;5.28;;;;;;;27.26;42.47;99200.16;5049464;28;20064;-37
2021/09/18 07:16:37;;;;;;;15.43;4.68;;;;;;;26.98;43.06;99199.75;5048277;28;20491;-37
2021/09/18 07:19:02;;;;;;;11.63;4.53;;;;;;;26.59;44.06;99201.59;5048993;28;20113;-37
2021/09/18 07:21:28;;;;;;;16.13;4.38;;;;;;;26.29;44.99;99202.28;5048608;28;20025;-38
2021/09/18 07:23:53;;;;;;;15.43;4.45;;;;;;;26.38;44.65;99196.78;5048253;28;20028;-38
2021/09/18 07:26:18;;;;;;;14.13;4.53;;;;;;;26.44;44.48;99179.13;5048449;28;20025;-38
2021/09/18 07:28:44;;;;;;;15.23;4.43;;;;;;;26.84;43.59;99173.47;5048649;28;20344;-37
2021/09/18 07:31:09;;;;;;;14.07;4.60;;;;;;;27.06;43.26;99169.69;5049781;28;20090;-37
2021/09/18 07:33:35;;;;;;;13.13;4.97;;;;;;;27.50;42.60;99173.06;5049255;28;20473;-37
2021/09/18 07:36:02;;;;;;;17.80;4.45;;;;;;;27.84;41.83;99184.09;5049883;28;20029;-38
2021/09/18 07:38:28;;;;;;;17.15;4.80;;;;;;;28.49;40.92;99170.88;5049728;28;20045;-36
2021/09/18 07:40:55;;;;;;;12.38;4.43;;;;;;;28.53;40.32;99185.50;5049582;28;20033;-37
2021/09/18 07:43:21;;;;;;;17.30;4.90;;;;;;;28.68;40.20;99180.56;5050027;28;20036;-37
2021/09/18 07:45:46;;;;;;;13.23;5.68;;;;;;;28.97;39.42;99180.38;5050182;28;20029;-38
2021/09/18 07:48:12;;;;;;;16.05;5.07;;;;;;;29.37;38.68;99170.72;5049607;28;20029;-37
2021/09/18 07:50:37;;;;;;;13.43;4.68;;;;;;;29.52;38.38;99166.50;5049601;28;20425;-37
2021/09/18 07:53:03;;;;;;;16.58;4.78;;;;;;;29.09;38.92;99174.09;5049439;28;20036;-38
2021/09/18 07:55:29;;;;;;;20.05;4.30;;;;;;;29.14;38.90;99178.59;5049291;28;20021;-38
2021/09/18 07:57:55;;;;;;;16.17;4.75;;;;;;;29.53;38.67;99176.31;5049381;28;20029;-38
2021/09/18 08:00:21;;;;;;;10.40;4.13;;;;;;;29.65;38.06;99181.00;5049389;28;20025;-37
2021/09/18 08:02:46;;;;;;;11.52;4.18;;;;;;;29.82;37.67;99187.03;5049035;28;20034;-36
2021/09/18 08:05:12;;;;;;;14.32;4.70;;;;;;;30.10;37.38;99185.47;5048838;28;20364;-39
2021/09/18 08:07:38;;;;;;;11.18;4.03;;;;;;;30.51;35.90;99178.03;5048860;28;20035;-37
2021/09/18 08:10:07;;;;;;;14.65;4.40;;;;;;;30.38;36.48;99174.53;5048904;28;20094;-37
2021/09/18 08:12:34;;;;;;;11.57;4.60;;;;;;;30.22;36.52;99166.25;5048733;28;20059;-36
2021/09/18 08:14:59;;;;;;;16.10;4.60;;;;;;;29.77;37.40;99157.09;5047756;28;20056;-36
2021/09/18 08:17:25;;;;;;;18.65;4.75;;;;;;;30.18;36.62;99154.38;5046551;28;20025;-37
2021/09/18 08:19:50;;;;;;;12.10;4.53;;;;;;;30.60;36.19;99149.28;5046691;28;20040;-37
2021/09/18 08:22:16;;;;;;;14.48;4.32;;;;;;;30.92;35.58;99148.50;5048423;28;20033;-37
2021/09/18 08:24:41;;;;;;;13.63;6.20;;;;;;;31.41;34.83;99147.31;5048532;28;20029;-37
2021/09/18 08:27:07;;;;;;;16.48;5.25;;;;;;;31.46;34.35;99141.56;5047240;28;20032;-37
2021/09/18 08:29:32;;;;;;;15.18;5.07;;;;;;;30.53;36.16;99137.31;5048116;28;20033;-37
2021/09/18 08:31:58;;;;;;;17.42;5.10;;;;;;;31.00;35.22;99128.34;5048342;28;20017;-37
2021/09/18 08:34:23;;;;;;;17.73;5.18;;;;;;;31.26;35.23;99143.44;5048568;28;20083;-36
2021/09/18 08:36:50;;;;;;;18.08;4.93;;;;;;;30.94;35.54;99140.75;5047624;28;20086;-37
2021/09/18 08:39:16;;;;;;;19.77;5.10;;;;;;;31.08;35.70;99137.53;5047724;28;20033;-38
2021/09/18 08:41:48;;;;;;;13.73;4.60;;;;;;;31.82;34.35;99126.66;5047683;28;20033;-38
2021/09/18 08:44:15;;;;;;;13.55;4.72;;;;;;;31.63;34.66;99132.94;5047212;28;20115;-39
2021/09/18 08:46:40;;;;;;;14.82;4.47;;;;;;;31.43;33.74;99120.28;5048075;28;20323;-38
2021/09/18 08:49:06;;;;;;;18.65;4.70;;;;;;;31.60;34.17;99121.84;5047555;28;20534;-37
2021/09/18 08:51:33;;;;;;;16.38;4.97;;;;;;;32.00;33.77;99115.22;5031683;28;20550;-37
2021/09/18 08:53:58;;;;;;;14.70;4.95;;;;;;;32.10;33.50;99120.16;5048339;28;20075;-37
2021/09/18 08:56:23;;;;;;;15.35;4.88;;;;;;;32.09;33.66;99126.84;5048626;28;20024;-37
2021/09/18 08:58:49;;;;;;;13.90;5.07;;;;;;;32.41;33.08;99121.94;5048240;28;20095;-37
2021/09/18 09:01:15;;;;;;;13.05;4.75;;;;;;;32.15;33.35;99119.88;5048695;28;20033;-36
2021/09/18 09:03:40;;;;;;;10.93;4.55;;;;;;;32.23;33.38;99121.59;5048552;28;21059;-37
2021/09/18 09:06:13;;;;;;;11.18;3.85;;;;;;;32.14;34.02;99124.59;5044239;28;20091;-37
2021/09/18 09:08:40;;;;;;;13.55;4.68;;;;;;;32.37;33.43;99118.34;5047679;28;20499;-37
2021/09/18 09:11:20;;;;;;;11.90;4.47;;;;;;;31.16;35.22;99115.34;5040709;28;20481;-38
2021/09/18 09:14:12;;;;;;;10.10;4.03;;;;;;;31.58;35.55;99102.19;5048855;28;20052;-36
2021/09/18 09:16:38;;;;;;;14.13;4.88;;;;;;;31.37;35.26;99098.56;5048093;28;20033;-36
2021/09/18 09:19:14;;;;;;;10.68;4.10;;;;;;;31.69;34.65;99104.00;5031276;28;20551;-36
2021/09/18 09:21:41;;;;;;;12.65;4.40;;;;;;;32.24;33.53;99095.69;5048769;28;20088;-38
2021/09/18 09:24:13;;;;;;;14.52;4.72;;;;;;;32.07;34.02;99093.41;5031738;28;20028;-36
2021/09/18 09:26:44;;;;;;;14.05;4.45;;;;;;;32.11;34.28;99097.78;5049743;28;20388;-36
2021/09/18 09:29:10;;;;;;;10.98;4.80;;;;;;;31.99;34.61;99092.44;5048411;28;20416;-36
2021/09/18 09:31:37;;;;;;;14.50;5.05;;;;;;;32.21;34.25;99085.38;5049788;28;20024;-37
2021/09/18 09:34:16;;;;;;;12.15;4.63;;;;;;;32.04;33.83;99078.38;5048414;28;20082;-49
2021/09/18 09:36:46;;;;;;;12.77;4.75;;;;;;;32.11;33.61;99092.28;5047831;28;20033;-50
2021/09/18 09:39:14;;;;;;;8.80;4.18;;;;;;;31.58;34.05;99097.47;5051457;28;20024;-37
2021/09/18 09:41:46;;;;;;;10.90;3.67;;;;;;;31.35;34.29;99094.59;5052320;28;20027;-36
2021/09/18 09:44:16;;;;;;;10.05;3.90;;;;;;;31.62;34.28;99095.59;5052823;28;20076;-37
2021/09/18 09:46:42;;;;;;;13.00;4.00;;;;;;;32.01;33.34;99097.56;5052565;28;20358;-38
2021/09/18 09:49:10;;;;;;;9.02;3.83;;;;;;;31.95;33.32;99097.06;5052947;28;20522;-39
2021/09/18 09:51:35;;;;;;;10.30;3.80;;;;;;;31.72;33.17;99083.22;5053269;28;20025;-38
2021/09/18 09:54:14;;;;;;;9.40;3.50;;;;;;;31.58;33.58;99074.69;5053233;28;20266;-37
2021/09/18 09:56:40;;;;;;;8.83;3.20;;;;;;;32.07;33.49;99076.88;5053359;28;20025;-37
2021/09/18 09:59:05;;;;;;;11.48;3.83;;;;;;;32.17;32.97;99076.28;5053114;28;20405;-38
2021/09/18 10:01:31;;;;;;;10.25;3.20;;;;;;;31.98;33.29;99079.03;5052914;28;20032;-37
2021/09/18 10:03:56;;;;;;;8.02;3.53;;;;;;;32.50;32.63;99074.88;5050751;28;20091;-37
2021/09/18 10:06:22;;;;;;;8.88;3.45;;;;;;;32.83;31.92;99065.25;5052361;28;20029;-49
2021/09/18 10:08:49;;;;;;;9.30;3.50;;;;;;;32.15;32.61;99084.09;5051880;28;20017;-37
2021/09/18 10:11:15;;;;;;;7.43;3.05;;;;;;;32.09;33.27;99080.84;5051084;28;20103;-37
2021/09/18 10:13:41;;;;;;;8.95;3.50;;;;;;;31.93;32.79;99089.16;5050775;28;20044;-37
2021/09/18 10:16:06;;;;;;;7.80;3.20;;;;;;;32.03;32.96;99093.31;5051984;28;20481;-36
2021/09/18 10:18:34;;;;;;;11.40;3.20;;;;;;;32.00;32.97;99095.97;5033630;28;20056;-37
2021/09/18 10:23:25;;;;;;;7.55;3.10;;;;;;;32.43;32.68;99102.31;5051998;28;20022;-37
2021/09/18 10:25:53;;;;;;;8.30;3.20;;;;;;;32.52;32.34;99105.63;5050410;28;20111;-37
2021/09/18 10:28:28;;;;;;;10.27;3.17;;;;;;;31.53;33.58;99106.03;5052464;28;20024;-50
2021/09/18 10:30:58;;;;;;;7.85;3.05;;;;;;;30.98;35.05;99089.44;5050973;28;20033;-50
2021/09/18 10:33:39;;;;;;;9.05;3.28;;;;;;;31.67;34.17;99098.06;5051633;28;20425;-52
2021/09/18 10:36:12;;;;;;;8.20;3.30;;;;;;;31.82;33.41;99084.63;5051434;28;20017;-51
2021/09/18 10:38:43;;;;;;;12.80;3.63;;;;;;;31.24;34.43;99066.84;5051598;28;20048;-52
2021/09/18 10:41:13;;;;;;;9.65;3.42;;;;;;;31.24;34.58;99057.81;5051166;28;20039;-51
2021/09/18 10:43:40;;;;;;;9.80;3.53;;;;;;;31.46;34.62;99050.84;5051900;28;20124;-50
2021/09/18 10:46:07;;;;;;;13.02;3.33;;;;;;;31.71;34.06;99067.91;5051065;28;20041;-52
2021/09/18 10:48:45;;;;;;;10.23;3.53;;;;;;;31.46;34.62;99067.34;5051395;28;20017;-52
2021/09/18 10:51:35;;;;;;;9.73;3.53;;;;;;;31.12;35.31;99066.97;5047561;28;20029;-52
2021/09/18 10:54:14;;;;;;;10.82;3.90;;;;;;;31.34;35.05;99077.31;5036773;28;20025;-50
2021/09/18 10:56:58;;;;;;;9.35;3.80;;;;;;;31.44;34.83;99067.69;5031212;28;20017;-50
2021/09/18 10:59:45;;;;;;;10.48;3.65;;;;;;;31.14;35.67;99075.66;5030171;28;20021;-51
2021/09/18 11:02:29;;;;;;;9.88;3.38;;;;;;;31.19;35.87;99075.41;5031399;28;20401;-51
2021/09/18 11:04:56;;;;;;;8.20;3.58;;;;;;;31.40;35.29;99066.84;5031947;28;20537;-50
2021/09/18 11:07:39;;;;;;;11.30;4.00;;;;;;;31.95;34.53;99066.81;5032288;28;20052;-51
2021/09/18 11:10:21;;;;;;;9.52;3.55;;;;;;;31.66;35.05;99065.41;5031568;28;20428;-51
2021/09/18 11:13:09;;;;;;;6.80;3.70;;;;;;;31.53;35.20;99084.81;5030198;28;20457;-50
2021/09/18 11:15:44;;;;;;;8.05;3.30;;;;;;;31.56;35.15;99081.34;5030445;28;20555;-52
2021/09/18 11:18:30;;;;;;;9.35;3.40;;;;;;;31.73;35.02;99080.13;5030150;28;20035;-52
2021/09/18 11:21:05;;;;;;;8.38;3.20;;;;;;;31.63;34.69;99082.66;5037139;28;20085;-51
2021/09/18 11:23:47;;;;;;;7.38;3.15;;;;;;;31.65;34.88;99072.09;5049890;28;20040;-48
2021/09/18 11:27:06;;;;;;;7.47;3.20;;;;;;;31.88;34.46;99047.41;5051945;28;20124;-50